sensor_id;sensor_type;location;lat;lon;timestamp;P1;durP1;ratioP1;P2;durP2;ratioP2
48403;SDS011;34202;52.536;6.042;2022-10-31T00:04:29;5.70;;;4.00;;
48403;SDS011;34202;52.536;6.042;2022-10-31T00:09:29;6.90;;;3.80;;
48403;SDS011;34202;52.536;6.042;2022-10-31T00:14:30;12.10;;;4.30;;
48403;SDS011;34202;52.536;6.042;2022-10-31T00:19:30;5.70;;;3.80;;
48403;SDS011;34202;52.536;6.042;2022-10-31T00:24:30;9.50;;;3.90;;
48403;SDS011;34202;52.536;6.042;2022-10-31T00:29:31;6.30;;;4.50;;
48403;SDS011;34202;52.536;6.042;2022-10-31T00:34:31;8.60;;;4.80;;
48403;SDS011;34202;52.536;6.042;2022-10-31T00:39:31;10.80;;;4.70;;
48403;SDS011;34202;52.536;6.042;2022-10-31T00:44:31;9.20;;;4.40;;
48403;SDS011;34202;52.536;6.042;2022-10-31T00:49:32;10.50;;;5.30;;
48403;SDS011;34202;52.536;6.042;2022-10-31T00:54:32;7.70;;;5.10;;
48403;SDS011;34202;52.536;6.042;2022-10-31T00:59:32;9.30;;;4.40;;
48403;SDS011;34202;52.536;6.042;2022-10-31T01:04:33;10.70;;;6.50;;
48403;SDS011;34202;52.536;6.042;2022-10-31T01:09:33;6.90;;;5.40;;
48403;SDS011;34202;52.536;6.042;2022-10-31T01:14:33;9.40;;;5.60;;
48403;SDS011;34202;52.536;6.042;2022-10-31T01:19:33;12.40;;;6.40;;
48403;SDS011;34202;52.536;6.042;2022-10-31T01:24:34;8.50;;;6.10;;
48403;SDS011;34202;52.536;6.042;2022-10-31T01:29:34;12.50;;;6.10;;
48403;SDS011;34202;52.536;6.042;2022-10-31T01:34:34;11.70;;;6.10;;
48403;SDS011;34202;52.536;6.042;2022-10-31T01:39:34;8.30;;;6.10;;
48403;SDS011;34202;52.536;6.042;2022-10-31T01:49:43;10.30;;;6.30;;
48403;SDS011;34202;52.536;6.042;2022-10-31T01:55:09;11.20;;;6.80;;
48403;SDS011;34202;52.536;6.042;2022-10-31T02:00:13;10.00;;;6.30;;
48403;SDS011;34202;52.536;6.042;2022-10-31T02:05:15;7.80;;;5.80;;
48403;SDS011;34202;52.536;6.042;2022-10-31T02:10:19;11.00;;;8.40;;
48403;SDS011;34202;52.536;6.042;2022-10-31T02:15:21;11.10;;;6.00;;
48403;SDS011;34202;52.536;6.042;2022-10-31T02:20:22;11.40;;;7.00;;
48403;SDS011;34202;52.536;6.042;2022-10-31T02:25:31;16.60;;;7.10;;
48403;SDS011;34202;52.536;6.042;2022-10-31T02:36:15;14.20;;;7.20;;
48403;SDS011;34202;52.536;6.042;2022-10-31T02:41:30;13.80;;;7.30;;
48403;SDS011;34202;52.536;6.042;2022-10-31T02:51:50;47.80;;;14.60;;
48403;SDS011;34202;52.536;6.042;2022-10-31T02:56:51;57.70;;;16.20;;
48403;SDS011;34202;52.536;6.042;2022-10-31T03:07:12;38.20;;;13.20;;
48403;SDS011;34202;52.536;6.042;2022-10-31T03:12:27;123.70;;;34.00;;
48403;SDS011;34202;52.536;6.042;2022-10-31T03:17:36;73.60;;;23.10;;
48403;SDS011;34202;52.536;6.042;2022-10-31T03:22:42;127.70;;;47.20;;
48403;SDS011;34202;52.536;6.042;2022-10-31T03:27:43;40.90;;;16.30;;
48403;SDS011;34202;52.536;6.042;2022-10-31T03:32:48;18.30;;;8.60;;
48403;SDS011;34202;52.536;6.042;2022-10-31T03:37:51;11.40;;;7.90;;
48403;SDS011;34202;52.536;6.042;2022-10-31T03:42:57;14.00;;;7.20;;
48403;SDS011;34202;52.536;6.042;2022-10-31T03:48:00;13.10;;;8.20;;
48403;SDS011;34202;52.536;6.042;2022-10-31T03:53:04;10.80;;;7.40;;
48403;SDS011;34202;52.536;6.042;2022-10-31T03:58:10;10.70;;;6.70;;
48403;SDS011;34202;52.536;6.042;2022-10-31T04:03:25;10.00;;;7.20;;
48403;SDS011;34202;52.536;6.042;2022-10-31T04:08:28;13.00;;;7.70;;
48403;SDS011;34202;52.536;6.042;2022-10-31T04:13:31;14.10;;;7.50;;
48403;SDS011;34202;52.536;6.042;2022-10-31T04:18:34;12.90;;;7.60;;
48403;SDS011;34202;52.536;6.042;2022-10-31T04:23:35;11.80;;;7.90;;
48403;SDS011;34202;52.536;6.042;2022-10-31T04:28:36;20.20;;;11.10;;
48403;SDS011;34202;52.536;6.042;2022-10-31T04:33:36;146.90;;;59.70;;
48403;SDS011;34202;52.536;6.042;2022-10-31T04:38:36;113.10;;;42.20;;
48403;SDS011;34202;52.536;6.042;2022-10-31T04:43:37;53.80;;;20.80;;
48403;SDS011;34202;52.536;6.042;2022-10-31T04:48:37;22.50;;;12.50;;
48403;SDS011;34202;52.536;6.042;2022-10-31T04:53:37;20.50;;;12.30;;
48403;SDS011;34202;52.536;6.042;2022-10-31T04:58:37;17.20;;;11.00;;
48403;SDS011;34202;52.536;6.042;2022-10-31T05:03:38;20.00;;;12.30;;
48403;SDS011;34202;52.536;6.042;2022-10-31T05:08:39;25.30;;;14.40;;
48403;SDS011;34202;52.536;6.042;2022-10-31T05:13:39;21.70;;;13.10;;
48403;SDS011;34202;52.536;6.042;2022-10-31T05:18:40;16.50;;;9.80;;
48403;SDS011;34202;52.536;6.042;2022-10-31T05:23:40;15.40;;;10.60;;
48403;SDS011;34202;52.536;6.042;2022-10-31T05:28:40;14.50;;;9.80;;
48403;SDS011;34202;52.536;6.042;2022-10-31T05:33:40;16.90;;;10.30;;
48403;SDS011;34202;52.536;6.042;2022-10-31T05:38:41;13.00;;;8.80;;
48403;SDS011;34202;52.536;6.042;2022-10-31T05:43:41;15.40;;;9.40;;
48403;SDS011;34202;52.536;6.042;2022-10-31T05:48:41;12.70;;;9.30;;
48403;SDS011;34202;52.536;6.042;2022-10-31T05:53:41;13.10;;;9.60;;
48403;SDS011;34202;52.536;6.042;2022-10-31T05:58:42;15.20;;;10.30;;
48403;SDS011;34202;52.536;6.042;2022-10-31T06:03:42;27.70;;;12.50;;
48403;SDS011;34202;52.536;6.042;2022-10-31T06:08:42;21.70;;;12.10;;
48403;SDS011;34202;52.536;6.042;2022-10-31T06:13:43;19.00;;;10.70;;
48403;SDS011;34202;52.536;6.042;2022-10-31T06:18:45;27.90;;;13.10;;
48403;SDS011;34202;52.536;6.042;2022-10-31T06:23:45;20.10;;;12.50;;
48403;SDS011;34202;52.536;6.042;2022-10-31T06:28:46;16.60;;;10.40;;
48403;SDS011;34202;52.536;6.042;2022-10-31T06:33:46;18.00;;;11.80;;
48403;SDS011;34202;52.536;6.042;2022-10-31T06:38:46;15.50;;;12.60;;
48403;SDS011;34202;52.536;6.042;2022-10-31T06:43:47;17.50;;;12.40;;
48403;SDS011;34202;52.536;6.042;2022-10-31T06:48:47;20.10;;;12.00;;
48403;SDS011;34202;52.536;6.042;2022-10-31T06:53:47;16.80;;;13.20;;
48403;SDS011;34202;52.536;6.042;2022-10-31T06:58:47;18.60;;;11.50;;
48403;SDS011;34202;52.536;6.042;2022-10-31T07:03:48;26.20;;;13.30;;
48403;SDS011;34202;52.536;6.042;2022-10-31T07:08:48;22.40;;;13.50;;
48403;SDS011;34202;52.536;6.042;2022-10-31T07:13:48;54.90;;;22.90;;
48403;SDS011;34202;52.536;6.042;2022-10-31T07:18:49;171.60;;;52.70;;
48403;SDS011;34202;52.536;6.042;2022-10-31T07:23:50;260.80;;;93.50;;
48403;SDS011;34202;52.536;6.042;2022-10-31T07:28:50;242.40;;;98.50;;
48403;SDS011;34202;52.536;6.042;2022-10-31T07:33:50;187.40;;;78.60;;
48403;SDS011;34202;52.536;6.042;2022-10-31T07:38:50;86.60;;;40.30;;
48403;SDS011;34202;52.536;6.042;2022-10-31T07:43:51;53.20;;;29.10;;
48403;SDS011;34202;52.536;6.042;2022-10-31T07:48:51;41.60;;;26.60;;
48403;SDS011;34202;52.536;6.042;2022-10-31T07:53:51;32.40;;;22.50;;
48403;SDS011;34202;52.536;6.042;2022-10-31T07:58:52;38.10;;;23.50;;
48403;SDS011;34202;52.536;6.042;2022-10-31T08:03:52;45.00;;;28.40;;
48403;SDS011;34202;52.536;6.042;2022-10-31T08:08:52;40.40;;;26.50;;
48403;SDS011;34202;52.536;6.042;2022-10-31T08:13:52;31.70;;;25.00;;
48403;SDS011;34202;52.536;6.042;2022-10-31T08:18:53;28.50;;;21.30;;
48403;SDS011;34202;52.536;6.042;2022-10-31T08:23:55;31.80;;;21.30;;
48403;SDS011;34202;52.536;6.042;2022-10-31T08:28:55;29.60;;;20.80;;
48403;SDS011;34202;52.536;6.042;2022-10-31T08:33:56;29.30;;;20.20;;
48403;SDS011;34202;52.536;6.042;2022-10-31T08:38:56;26.30;;;20.50;;
48403;SDS011;34202;52.536;6.042;2022-10-31T08:43:56;29.60;;;19.80;;
48403;SDS011;34202;52.536;6.042;2022-10-31T08:48:56;28.70;;;19.20;;
48403;SDS011;34202;52.536;6.042;2022-10-31T08:53:57;26.20;;;18.30;;
48403;SDS011;34202;52.536;6.042;2022-10-31T08:58:57;25.60;;;18.10;;
48403;SDS011;34202;52.536;6.042;2022-10-31T09:03:58;29.60;;;20.10;;
48403;SDS011;34202;52.536;6.042;2022-10-31T09:08:58;31.00;;;21.10;;
48403;SDS011;34202;52.536;6.042;2022-10-31T09:13:58;31.80;;;23.10;;
48403;SDS011;34202;52.536;6.042;2022-10-31T09:18:58;34.50;;;25.10;;
48403;SDS011;34202;52.536;6.042;2022-10-31T09:23:59;33.70;;;24.30;;
48403;SDS011;34202;52.536;6.042;2022-10-31T09:28:59;34.10;;;22.30;;
48403;SDS011;34202;52.536;6.042;2022-10-31T09:34:02;35.90;;;21.30;;
48403;SDS011;34202;52.536;6.042;2022-10-31T09:39:02;34.10;;;20.90;;
48403;SDS011;34202;52.536;6.042;2022-10-31T09:44:12;35.30;;;21.70;;
48403;SDS011;34202;52.536;6.042;2022-10-31T09:54:44;26.60;;;20.60;;
48403;SDS011;34202;52.536;6.042;2022-10-31T09:59:49;27.80;;;19.60;;
48403;SDS011;34202;52.536;6.042;2022-10-31T10:04:56;33.20;;;21.00;;
48403;SDS011;34202;52.536;6.042;2022-10-31T10:09:59;32.10;;;21.10;;
48403;SDS011;34202;52.536;6.042;2022-10-31T10:25:40;46.00;;;27.30;;
48403;SDS011;34202;52.536;6.042;2022-10-31T10:35:52;31.80;;;17.20;;
48403;SDS011;34202;52.536;6.042;2022-10-31T10:51:41;23.10;;;15.10;;
48403;SDS011;34202;52.536;6.042;2022-10-31T11:02:17;20.10;;;11.80;;
48403;SDS011;34202;52.536;6.042;2022-10-31T11:07:19;23.80;;;12.00;;
48403;SDS011;34202;52.536;6.042;2022-10-31T11:12:25;16.10;;;12.20;;
48403;SDS011;34202;52.536;6.042;2022-10-31T11:17:35;19.10;;;13.40;;
48403;SDS011;34202;52.536;6.042;2022-10-31T11:22:41;21.50;;;13.30;;
48403;SDS011;34202;52.536;6.042;2022-10-31T11:27:43;23.20;;;12.90;;
48403;SDS011;34202;52.536;6.042;2022-10-31T11:32:47;18.80;;;13.30;;
48403;SDS011;34202;52.536;6.042;2022-10-31T11:37:52;21.00;;;12.40;;
48403;SDS011;34202;52.536;6.042;2022-10-31T11:42:56;20.10;;;11.70;;
48403;SDS011;34202;52.536;6.042;2022-10-31T11:47:59;17.50;;;10.80;;
48403;SDS011;34202;52.536;6.042;2022-10-31T11:53:01;14.40;;;9.10;;
48403;SDS011;34202;52.536;6.042;2022-10-31T11:58:03;18.70;;;10.10;;
48403;SDS011;34202;52.536;6.042;2022-10-31T12:08:23;14.90;;;10.30;;
48403;SDS011;34202;52.536;6.042;2022-10-31T12:13:32;16.00;;;10.90;;
48403;SDS011;34202;52.536;6.042;2022-10-31T12:18:44;16.90;;;9.70;;
48403;SDS011;34202;52.536;6.042;2022-10-31T12:29:20;14.90;;;9.60;;
48403;SDS011;34202;52.536;6.042;2022-10-31T12:34:53;13.90;;;9.00;;
48403;SDS011;34202;52.536;6.042;2022-10-31T12:50:52;12.50;;;8.20;;
48403;SDS011;34202;52.536;6.042;2022-10-31T12:56:24;14.10;;;9.40;;
48403;SDS011;34202;52.536;6.042;2022-10-31T13:01:27;14.60;;;8.20;;
48403;SDS011;34202;52.536;6.042;2022-10-31T13:06:36;11.90;;;7.70;;
48403;SDS011;34202;52.536;6.042;2022-10-31T13:11:47;16.10;;;8.60;;
48403;SDS011;34202;52.536;6.042;2022-10-31T13:16:53;14.40;;;9.80;;
48403;SDS011;34202;52.536;6.042;2022-10-31T13:22:06;16.40;;;9.50;;
48403;SDS011;34202;52.536;6.042;2022-10-31T13:27:21;24.80;;;13.40;;
48403;SDS011;34202;52.536;6.042;2022-10-31T13:32:23;18.90;;;11.00;;
48403;SDS011;34202;52.536;6.042;2022-10-31T13:58:19;25.60;;;14.30;;
48403;SDS011;34202;52.536;6.042;2022-10-31T14:03:28;36.70;;;19.60;;
48403;SDS011;34202;52.536;6.042;2022-10-31T14:08:31;37.90;;;19.30;;
48403;SDS011;34202;52.536;6.042;2022-10-31T14:13:35;25.30;;;17.10;;
48403;SDS011;34202;52.536;6.042;2022-10-31T14:18:37;35.50;;;17.40;;
48403;SDS011;34202;52.536;6.042;2022-10-31T14:23:41;19.10;;;11.50;;
48403;SDS011;34202;52.536;6.042;2022-10-31T14:28:44;18.60;;;11.70;;
48403;SDS011;34202;52.536;6.042;2022-10-31T14:33:45;18.20;;;10.40;;
48403;SDS011;34202;52.536;6.042;2022-10-31T14:38:57;19.50;;;12.50;;
48403;SDS011;34202;52.536;6.042;2022-10-31T14:44:34;17.80;;;10.80;;
48403;SDS011;34202;52.536;6.042;2022-10-31T14:55:14;18.30;;;10.00;;
48403;SDS011;34202;52.536;6.042;2022-10-31T15:00:19;20.10;;;11.70;;
48403;SDS011;34202;52.536;6.042;2022-10-31T15:05:20;15.70;;;10.10;;
48403;SDS011;34202;52.536;6.042;2022-10-31T15:15:25;19.10;;;9.60;;
48403;SDS011;34202;52.536;6.042;2022-10-31T15:20:30;18.60;;;10.80;;
48403;SDS011;34202;52.536;6.042;2022-10-31T15:25:38;19.10;;;11.90;;
48403;SDS011;34202;52.536;6.042;2022-10-31T15:30:38;18.70;;;10.60;;
48403;SDS011;34202;52.536;6.042;2022-10-31T15:35:38;25.30;;;13.40;;
48403;SDS011;34202;52.536;6.042;2022-10-31T15:40:39;20.60;;;13.20;;
48403;SDS011;34202;52.536;6.042;2022-10-31T15:45:39;32.30;;;20.40;;
48403;SDS011;34202;52.536;6.042;2022-10-31T15:50:55;21.90;;;14.10;;
48403;SDS011;34202;52.536;6.042;2022-10-31T15:55:58;20.90;;;13.10;;
48403;SDS011;34202;52.536;6.042;2022-10-31T16:01:02;26.00;;;15.50;;
48403;SDS011;34202;52.536;6.042;2022-10-31T16:06:04;26.90;;;15.40;;
48403;SDS011;34202;52.536;6.042;2022-10-31T16:16:15;23.90;;;15.40;;
48403;SDS011;34202;52.536;6.042;2022-10-31T16:21:22;21.40;;;13.80;;
48403;SDS011;34202;52.536;6.042;2022-10-31T16:26:25;22.70;;;14.90;;
48403;SDS011;34202;52.536;6.042;2022-10-31T16:31:35;25.90;;;14.90;;
48403;SDS011;34202;52.536;6.042;2022-10-31T16:36:40;29.20;;;15.70;;
48403;SDS011;34202;52.536;6.042;2022-10-31T16:41:41;18.80;;;13.00;;
48403;SDS011;34202;52.536;6.042;2022-10-31T16:46:42;24.90;;;14.60;;
48403;SDS011;34202;52.536;6.042;2022-10-31T16:51:43;22.90;;;14.60;;
48403;SDS011;34202;52.536;6.042;2022-10-31T16:56:43;21.20;;;12.50;;
48403;SDS011;34202;52.536;6.042;2022-10-31T17:01:44;30.10;;;16.40;;
48403;SDS011;34202;52.536;6.042;2022-10-31T17:06:48;26.60;;;15.10;;
48403;SDS011;34202;52.536;6.042;2022-10-31T17:11:49;28.00;;;15.20;;
48403;SDS011;34202;52.536;6.042;2022-10-31T17:16:52;26.40;;;16.10;;
48403;SDS011;34202;52.536;6.042;2022-10-31T17:21:53;24.50;;;16.80;;
48403;SDS011;34202;52.536;6.042;2022-10-31T17:26:53;26.30;;;17.50;;
48403;SDS011;34202;52.536;6.042;2022-10-31T17:31:53;26.10;;;16.80;;
48403;SDS011;34202;52.536;6.042;2022-10-31T17:36:54;28.70;;;18.00;;
48403;SDS011;34202;52.536;6.042;2022-10-31T17:41:54;29.20;;;17.90;;
48403;SDS011;34202;52.536;6.042;2022-10-31T17:46:54;29.90;;;18.80;;
48403;SDS011;34202;52.536;6.042;2022-10-31T17:51:54;21.80;;;15.50;;
48403;SDS011;34202;52.536;6.042;2022-10-31T17:56:55;28.10;;;19.60;;
48403;SDS011;34202;52.536;6.042;2022-10-31T18:01:55;40.70;;;22.10;;
48403;SDS011;34202;52.536;6.042;2022-10-31T18:06:56;28.30;;;19.30;;
48403;SDS011;34202;52.536;6.042;2022-10-31T18:11:56;29.50;;;18.80;;
48403;SDS011;34202;52.536;6.042;2022-10-31T18:16:57;33.10;;;19.80;;
48403;SDS011;34202;52.536;6.042;2022-10-31T18:21:57;27.60;;;20.40;;
48403;SDS011;34202;52.536;6.042;2022-10-31T18:26:57;38.40;;;19.70;;
48403;SDS011;34202;52.536;6.042;2022-10-31T18:31:58;27.50;;;20.00;;
48403;SDS011;34202;52.536;6.042;2022-10-31T18:36:58;33.50;;;19.30;;
48403;SDS011;34202;52.536;6.042;2022-10-31T18:41:58;37.30;;;20.60;;
48403;SDS011;34202;52.536;6.042;2022-10-31T18:46:58;159.10;;;141.70;;
48403;SDS011;34202;52.536;6.042;2022-10-31T18:51:59;38.30;;;27.20;;
48403;SDS011;34202;52.536;6.042;2022-10-31T18:56:59;31.60;;;22.70;;
48403;SDS011;34202;52.536;6.042;2022-10-31T19:02:00;30.20;;;21.30;;
48403;SDS011;34202;52.536;6.042;2022-10-31T19:07:00;38.30;;;23.10;;
48403;SDS011;34202;52.536;6.042;2022-10-31T19:12:00;33.80;;;20.70;;
48403;SDS011;34202;52.536;6.042;2022-10-31T19:17:00;33.30;;;20.20;;
48403;SDS011;34202;52.536;6.042;2022-10-31T19:22:01;36.20;;;21.30;;
48403;SDS011;34202;52.536;6.042;2022-10-31T19:27:01;28.90;;;20.70;;
48403;SDS011;34202;52.536;6.042;2022-10-31T19:32:03;31.20;;;21.10;;
48403;SDS011;34202;52.536;6.042;2022-10-31T19:37:03;35.20;;;22.10;;
48403;SDS011;34202;52.536;6.042;2022-10-31T19:42:03;33.40;;;21.20;;
48403;SDS011;34202;52.536;6.042;2022-10-31T19:47:04;37.50;;;23.00;;
48403;SDS011;34202;52.536;6.042;2022-10-31T19:52:04;36.30;;;22.20;;
48403;SDS011;34202;52.536;6.042;2022-10-31T19:57:04;39.00;;;21.80;;
48403;SDS011;34202;52.536;6.042;2022-10-31T20:02:05;32.90;;;21.60;;
48403;SDS011;34202;52.536;6.042;2022-10-31T20:07:05;33.20;;;21.40;;
48403;SDS011;34202;52.536;6.042;2022-10-31T20:12:05;33.00;;;22.10;;
48403;SDS011;34202;52.536;6.042;2022-10-31T20:17:06;32.10;;;20.50;;
48403;SDS011;34202;52.536;6.042;2022-10-31T20:22:07;28.70;;;18.90;;
48403;SDS011;34202;52.536;6.042;2022-10-31T20:27:07;31.10;;;20.50;;
48403;SDS011;34202;52.536;6.042;2022-10-31T20:32:08;29.70;;;19.80;;
48403;SDS011;34202;52.536;6.042;2022-10-31T20:37:08;34.50;;;19.30;;
48403;SDS011;34202;52.536;6.042;2022-10-31T20:42:08;31.80;;;20.70;;
48403;SDS011;34202;52.536;6.042;2022-10-31T20:47:09;30.60;;;20.30;;
48403;SDS011;34202;52.536;6.042;2022-10-31T20:52:09;32.60;;;18.40;;
48403;SDS011;34202;52.536;6.042;2022-10-31T20:57:09;29.10;;;17.20;;
48403;SDS011;34202;52.536;6.042;2022-10-31T21:02:10;32.00;;;20.10;;
48403;SDS011;34202;52.536;6.042;2022-10-31T21:07:10;45.00;;;22.30;;
48403;SDS011;34202;52.536;6.042;2022-10-31T21:12:10;29.80;;;17.80;;
48403;SDS011;34202;52.536;6.042;2022-10-31T21:17:10;31.20;;;17.70;;
48403;SDS011;34202;52.536;6.042;2022-10-31T21:22:11;33.20;;;19.10;;
48403;SDS011;34202;52.536;6.042;2022-10-31T21:27:11;29.70;;;17.90;;
48403;SDS011;34202;52.536;6.042;2022-10-31T21:32:11;32.10;;;17.30;;
48403;SDS011;34202;52.536;6.042;2022-10-31T21:37:12;36.80;;;17.50;;
48403;SDS011;34202;52.536;6.042;2022-10-31T21:42:12;27.60;;;16.60;;
48403;SDS011;34202;52.536;6.042;2022-10-31T21:47:12;30.20;;;16.70;;
48403;SDS011;34202;52.536;6.042;2022-10-31T21:52:13;24.80;;;14.40;;
48403;SDS011;34202;52.536;6.042;2022-10-31T21:57:13;25.70;;;14.40;;
48403;SDS011;34202;52.536;6.042;2022-10-31T22:02:13;18.80;;;12.80;;
48403;SDS011;34202;52.536;6.042;2022-10-31T22:07:14;20.30;;;11.80;;
48403;SDS011;34202;52.536;6.042;2022-10-31T22:12:15;21.20;;;11.70;;
48403;SDS011;34202;52.536;6.042;2022-10-31T22:17:15;28.40;;;13.40;;
48403;SDS011;34202;52.536;6.042;2022-10-31T22:22:15;22.10;;;10.90;;
48403;SDS011;34202;52.536;6.042;2022-10-31T22:27:16;15.70;;;10.00;;
48403;SDS011;34202;52.536;6.042;2022-10-31T22:32:16;20.00;;;11.40;;
48403;SDS011;34202;52.536;6.042;2022-10-31T22:37:16;17.60;;;10.00;;
48403;SDS011;34202;52.536;6.042;2022-10-31T22:42:16;17.10;;;9.10;;
48403;SDS011;34202;52.536;6.042;2022-10-31T22:47:17;14.10;;;9.20;;
48403;SDS011;34202;52.536;6.042;2022-10-31T22:52:17;18.80;;;9.50;;
48403;SDS011;34202;52.536;6.042;2022-10-31T22:57:17;14.90;;;9.30;;
48403;SDS011;34202;52.536;6.042;2022-10-31T23:02:18;15.80;;;8.20;;
48403;SDS011;34202;52.536;6.042;2022-10-31T23:07:18;16.60;;;9.20;;
48403;SDS011;34202;52.536;6.042;2022-10-31T23:12:18;15.80;;;9.30;;
48403;SDS011;34202;52.536;6.042;2022-10-31T23:17:37;11.50;;;6.90;;
48403;SDS011;34202;52.536;6.042;2022-10-31T23:22:38;18.20;;;9.60;;
48403;SDS011;34202;52.536;6.042;2022-10-31T23:27:39;14.90;;;6.90;;
48403;SDS011;34202;52.536;6.042;2022-10-31T23:32:39;16.80;;;7.50;;
48403;SDS011;34202;52.536;6.042;2022-10-31T23:37:40;19.00;;;7.70;;
48403;SDS011;34202;52.536;6.042;2022-10-31T23:42:40;14.40;;;5.80;;
48403;SDS011;34202;52.536;6.042;2022-10-31T23:47:40;13.10;;;6.20;;
48403;SDS011;34202;52.536;6.042;2022-10-31T23:52:40;14.40;;;6.70;;
48403;SDS011;34202;52.536;6.042;2022-10-31T23:57:41;11.70;;;6.60;;
